Time;durP1;ratioP1;P1;durP2;ratioP2;P2;SDS_P1;SDS_P2;PMS_P1;PMS_P2;Temp;Humidity;BMP_temperature;BMP_pressure;BME280_temperature;BME280_humidity;BME280_pressure;Samples;Min_cycle;Max_cycle;Signal;HPM_P1;HPM_P2
2021/07/02 00:00:32;;;;;;;0.00;0.00;;;;;;;;;;5004328;28;20100;-73
2021/07/02 00:02:59;;;;;;;0.00;0.00;;;;;;;;;;5029934;28;20037;-66
2021/07/02 00:05:25;;;;;;;0.00;0.00;;;;;;;;;;5042158;28;20039;-71
2021/07/02 00:07:51;;;;;;;0.00;0.00;;;;;;;;;;5027462;28;20106;-71
2021/07/02 00:10:16;;;;;;;0.00;0.00;;;;;;;;;;5027680;28;20079;-72
2021/07/02 00:12:42;;;;;;;0.00;0.00;;;;;;;;;;5026321;28;20088;-70
2021/07/02 00:15:08;;;;;;;0.00;0.00;;;;;;;;;;5023095;28;20050;-70
2021/07/02 00:17:34;;;;;;;0.00;0.00;;;;;;;;;;5021971;28;20034;-70
2021/07/02 00:20:00;;;;;;;0.00;0.00;;;;;;;;;;5020526;28;20044;-69
2021/07/02 00:22:26;;;;;;;0.00;0.00;;;;;;;;;;5019248;28;20408;-69
2021/07/02 00:24:51;;;;;;;0.00;0.00;;;;;;;;;;5023472;28;20076;-70
2021/07/02 00:27:17;;;;;;;0.00;0.00;;;;;;;;;;5018795;28;20099;-68
2021/07/02 00:29:43;;;;;;;0.00;0.00;;;;;;;;;;5019406;28;20041;-66
2021/07/02 00:32:10;;;;;;;0.00;0.00;;;;;;;;;;5019654;28;20412;-67
2021/07/02 00:34:36;;;;;;;0.00;0.00;;;;;;;;;;5023240;28;20033;-68
2021/07/02 00:37:03;;;;;;;0.03;0.00;;;;;;;;;;5017795;28;20375;-68
2021/07/02 00:39:29;;;;;;;0.00;0.00;;;;;;;;;;5018229;28;20038;-67
2021/07/02 00:41:54;;;;;;;0.00;0.00;;;;;;;;;;5018514;28;20111;-68
2021/07/02 00:44:37;;;;;;;0.00;0.00;;;;;;;;;;5018601;28;20503;-69
2021/07/02 00:47:03;;;;;;;0.00;0.00;;;;;;;;;;5020274;28;20033;-70
2021/07/02 00:49:29;;;;;;;0.00;0.00;;;;;;;;;;5019570;28;20050;-68
2021/07/02 00:51:55;;;;;;;0.00;0.00;;;;;;;;;;5021210;28;20409;-68
2021/07/02 00:54:21;;;;;;;0.00;0.00;;;;;;;;;;5015692;28;20128;-65
2021/07/02 00:56:47;;;;;;;0.00;0.00;;;;;;;;;;5018931;28;20784;-67
2021/07/02 00:59:13;;;;;;;0.00;0.00;;;;;;;;;;5018456;28;20475;-69
2021/07/02 01:01:40;;;;;;;0.00;0.00;;;;;;;;;;5000901;28;20136;-68
2021/07/02 01:04:06;;;;;;;0.00;0.00;;;;;;;;;;5015555;28;20405;-69
2021/07/02 01:06:37;;;;;;;0.05;0.00;;;;;;;;;;5020205;28;20040;-68
2021/07/02 01:09:05;;;;;;;0.00;0.00;;;;;;;;;;5021672;28;20048;-68
2021/07/02 01:11:32;;;;;;;0.00;0.00;;;;;;;;;;5017304;28;20051;-67
2021/07/02 01:13:58;;;;;;;0.00;0.00;;;;;;;;;;5015798;28;20069;-67
2021/07/02 01:16:24;;;;;;;0.00;0.00;;;;;;;;;;5013219;28;20356;-68
2021/07/02 01:18:51;;;;;;;0.00;0.00;;;;;;;;;;5016999;28;20420;-67
2021/07/02 01:21:18;;;;;;;0.00;0.00;;;;;;;;;;5015574;28;20175;-68
2021/07/02 01:23:44;;;;;;;0.00;0.00;;;;;;;;;;5019376;28;20065;-68
2021/07/02 01:26:12;;;;;;;0.00;0.00;;;;;;;;;;5016957;28;20409;-67
2021/07/02 01:28:41;;;;;;;0.00;0.00;;;;;;;;;;5013017;28;20045;-68
2021/07/02 01:31:07;;;;;;;0.00;0.00;;;;;;;;;;5016283;28;20410;-67
2021/07/02 01:33:33;;;;;;;0.00;0.00;;;;;;;;;;5021837;28;20515;-67
2021/07/02 01:36:05;;;;;;;0.00;0.00;;;;;;;;;;5023884;28;20048;-67
2021/07/02 01:38:31;;;;;;;0.00;0.00;;;;;;;;;;5022391;28;20037;-68
2021/07/02 01:40:56;;;;;;;0.00;0.00;;;;;;;;;;5020147;28;20111;-72
2021/07/02 01:43:24;;;;;;;0.00;0.00;;;;;;;;;;5021055;28;20037;-72
2021/07/02 01:45:51;;;;;;;0.00;0.00;;;;;;;;;;5014415;28;20037;-70
2021/07/02 01:48:20;;;;;;;0.00;0.00;;;;;;;;;;5014161;28;20050;-73
2021/07/02 01:50:46;;;;;;;0.00;0.00;;;;;;;;;;5021237;28;20130;-71
2021/07/02 01:53:14;;;;;;;0.00;0.00;;;;;;;;;;5017016;28;20038;-67
2021/07/02 01:55:40;;;;;;;0.00;0.00;;;;;;;;;;5027322;28;20076;-70
2021/07/02 01:58:08;;;;;;;0.00;0.00;;;;;;;;;;5035600;28;20041;-70
2021/07/02 02:00:40;;;;;;;0.00;0.00;;;;;;;;;;5022101;28;20094;-65
2021/07/02 02:03:13;;;;;;;0.00;0.00;;;;;;;;;;5029727;28;20064;-69
2021/07/02 02:05:41;;;;;;;0.00;0.00;;;;;;;;;;5042778;28;20052;-70
2021/07/02 02:08:07;;;;;;;0.00;0.00;;;;;;;;;;5035099;28;20037;-68
2021/07/02 02:10:34;;;;;;;0.00;0.00;;;;;;;;;;5024343;28;20245;-69
2021/07/02 02:13:01;;;;;;;0.00;0.00;;;;;;;;;;5031542;28;20044;-66
2021/07/02 02:15:27;;;;;;;0.00;0.00;;;;;;;;;;5035155;28;20090;-70
2021/07/02 02:17:55;;;;;;;0.00;0.00;;;;;;;;;;5027564;28;20493;-71
2021/07/02 02:20:22;;;;;;;0.00;0.00;;;;;;;;;;5039078;28;20044;-70
2021/07/02 02:22:49;;;;;;;0.00;0.00;;;;;;;;;;5039559;28;20564;-68
2021/07/02 02:25:15;;;;;;;0.00;0.00;;;;;;;;;;5046105;28;20045;-66
2021/07/02 02:27:42;;;;;;;0.00;0.00;;;;;;;;;;5032895;28;20091;-69
2021/07/02 02:30:10;;;;;;;0.00;0.00;;;;;;;;;;5008418;28;20175;-70
2021/07/02 02:32:37;;;;;;;0.00;0.00;;;;;;;;;;5039141;28;20133;-65
2021/07/02 02:35:04;;;;;;;0.00;0.00;;;;;;;;;;5028218;28;20072;-69
2021/07/02 02:37:32;;;;;;;0.00;0.00;;;;;;;;;;5035684;28;20060;-69
2021/07/02 02:39:59;;;;;;;0.00;0.00;;;;;;;;;;5025083;28;20565;-69
2021/07/02 02:42:25;;;;;;;0.00;0.00;;;;;;;;;;5039796;28;20044;-68
2021/07/02 02:44:51;;;;;;;0.00;0.00;;;;;;;;;;5036994;28;20499;-68
2021/07/02 02:47:17;;;;;;;0.00;0.00;;;;;;;;;;5012411;28;20504;-66
2021/07/02 02:49:43;;;;;;;0.00;0.00;;;;;;;;;;5024511;28;20115;-70
2021/07/02 02:52:11;;;;;;;0.00;0.00;;;;;;;;;;5020963;28;20046;-71
2021/07/02 02:54:36;;;;;;;0.00;0.00;;;;;;;;;;5021776;28;20041;-70
2021/07/02 02:57:06;;;;;;;0.00;0.00;;;;;;;;;;5024719;28;20099;-65
2021/07/02 02:59:38;;;;;;;0.00;0.00;;;;;;;;;;5038333;28;20063;-68
2021/07/02 03:02:07;;;;;;;0.00;0.00;;;;;;;;;;5044904;28;20128;-67
2021/07/02 03:04:35;;;;;;;0.00;0.00;;;;;;;;;;5043117;28;20453;-68
2021/07/02 03:07:04;;;;;;;0.00;0.00;;;;;;;;;;5025653;28;20048;-68
2021/07/02 03:09:29;;;;;;;0.00;0.00;;;;;;;;;;5030541;28;20041;-72
2021/07/02 03:11:56;;;;;;;0.00;0.00;;;;;;;;;;5034279;28;20040;-73
2021/07/02 03:14:22;;;;;;;0.00;0.00;;;;;;;;;;5046517;28;20408;-70
2021/07/02 03:16:48;;;;;;;0.00;0.00;;;;;;;;;;5031939;28;20045;-72
2021/07/02 03:19:14;;;;;;;0.00;0.00;;;;;;;;;;5028368;28;20132;-71
2021/07/02 03:21:40;;;;;;;0.00;0.00;;;;;;;;;;5043111;28;20147;-73
2021/07/02 03:24:06;;;;;;;0.00;0.00;;;;;;;;;;5025269;28;20045;-71
2021/07/02 03:26:32;;;;;;;0.00;0.00;;;;;;;;;;5044099;28;20389;-66
2021/07/02 03:28:58;;;;;;;0.00;0.00;;;;;;;;;;5043827;28;20072;-73
2021/07/02 03:31:25;;;;;;;0.00;0.00;;;;;;;;;;5041377;28;20087;-71
2021/07/02 03:33:51;;;;;;;0.00;0.00;;;;;;;;;;5033140;28;20029;-70
2021/07/02 03:36:17;;;;;;;0.00;0.00;;;;;;;;;;5017350;28;20064;-74
2021/07/02 03:38:45;;;;;;;0.00;0.00;;;;;;;;;;5010335;28;20054;-72
2021/07/02 03:41:10;;;;;;;0.00;0.00;;;;;;;;;;5041140;28;20040;-67
2021/07/02 03:43:38;;;;;;;0.00;0.00;;;;;;;;;;5038874;28;20041;-67
2021/07/02 03:46:05;;;;;;;0.00;0.00;;;;;;;;;;5026648;28;20045;-69
2021/07/02 03:48:31;;;;;;;0.00;0.00;;;;;;;;;;5027569;28;20048;-66
2021/07/02 03:50:57;;;;;;;0.00;0.00;;;;;;;;;;5018138;28;20053;-70
2021/07/02 03:53:23;;;;;;;0.00;0.00;;;;;;;;;;5028755;28;20037;-71
2021/07/02 03:55:48;;;;;;;0.00;0.00;;;;;;;;;;5027322;28;20049;-68
2021/07/02 03:58:14;;;;;;;0.00;0.00;;;;;;;;;;5045449;28;20024;-66
2021/07/02 04:00:40;;;;;;;0.00;0.00;;;;;;;;;;5045316;28;20040;-70
2021/07/02 04:03:05;;;;;;;0.00;0.00;;;;;;;;;;5038900;28;20464;-72
2021/07/02 04:05:31;;;;;;;0.00;0.00;;;;;;;;;;5024924;28;20033;-73
2021/07/02 04:07:56;;;;;;;0.00;0.00;;;;;;;;;;5007044;28;20033;-72
2021/07/02 04:10:22;;;;;;;0.00;0.00;;;;;;;;;;5026684;28;20088;-70
2021/07/02 04:12:50;;;;;;;0.00;0.00;;;;;;;;;;5027593;28;20464;-74
2021/07/02 04:15:15;;;;;;;0.00;0.00;;;;;;;;;;5027338;28;20033;-68
2021/07/02 04:17:41;;;;;;;0.08;0.00;;;;;;;;;;5033804;28;20106;-72
2021/07/02 04:20:08;;;;;;;0.00;0.00;;;;;;;;;;5045877;28;20033;-73
2021/07/02 04:22:34;;;;;;;0.00;0.00;;;;;;;;;;5030516;28;20037;-70
2021/07/02 04:25:00;;;;;;;0.00;0.00;;;;;;;;;;5028089;28;20041;-68
2021/07/02 04:27:26;;;;;;;0.00;0.00;;;;;;;;;;5045418;28;20013;-73
2021/07/02 04:29:52;;;;;;;0.00;0.00;;;;;;;;;;5039290;28;20039;-72
2021/07/02 04:32:17;;;;;;;0.00;0.00;;;;;;;;;;5027244;28;20037;-72
2021/07/02 04:34:43;;;;;;;0.00;0.00;;;;;;;;;;5007483;28;20135;-73
2021/07/02 04:37:09;;;;;;;0.05;0.00;;;;;;;;;;5029119;28;20059;-72
2021/07/02 04:39:35;;;;;;;0.00;0.00;;;;;;;;;;5041940;28;20042;-70
2021/07/02 04:42:01;;;;;;;0.00;0.00;;;;;;;;;;5030277;28;20439;-67
2021/07/02 04:44:26;;;;;;;0.00;0.00;;;;;;;;;;5040889;28;20747;-70
2021/07/02 04:46:52;;;;;;;0.00;0.00;;;;;;;;;;5032248;28;20048;-69
2021/07/02 04:49:18;;;;;;;0.00;0.00;;;;;;;;;;5024705;28;20034;-73
2021/07/02 04:51:43;;;;;;;0.00;0.00;;;;;;;;;;5036658;28;20041;-70
2021/07/02 04:54:11;;;;;;;0.00;0.00;;;;;;;;;;5033947;28;20033;-74
2021/07/02 04:56:37;;;;;;;0.00;0.00;;;;;;;;;;5038600;28;20499;-75
2021/07/02 04:59:02;;;;;;;0.00;0.00;;;;;;;;;;5045480;28;20060;-74
2021/07/02 05:01:28;;;;;;;0.00;0.00;;;;;;;;;;5021080;28;20041;-69
2021/07/02 05:03:54;;;;;;;0.00;0.00;;;;;;;;;;5026215;28;20120;-72
2021/07/02 05:06:20;;;;;;;0.00;0.00;;;;;;;;;;5024199;28;20107;-68
2021/07/02 05:08:46;;;;;;;0.00;0.00;;;;;;;;;;5005866;28;20034;-67
2021/07/02 05:11:12;;;;;;;0.00;0.00;;;;;;;;;;5012306;28;20044;-69
2021/07/02 05:13:38;;;;;;;0.00;0.00;;;;;;;;;;5034701;28;20029;-68
2021/07/02 05:16:04;;;;;;;0.00;0.00;;;;;;;;;;5027507;28;20465;-67
2021/07/02 05:18:31;;;;;;;0.00;0.00;;;;;;;;;;5013650;28;20184;-77
2021/07/02 05:20:57;;;;;;;0.00;0.00;;;;;;;;;;5037883;28;20045;-68
2021/07/02 05:23:23;;;;;;;0.00;0.00;;;;;;;;;;5017426;28;20033;-66
2021/07/02 05:25:48;;;;;;;0.00;0.00;;;;;;;;;;5023268;28;20038;-67
2021/07/02 05:28:14;;;;;;;0.00;0.00;;;;;;;;;;5020908;28;20128;-68
2021/07/02 05:30:40;;;;;;;0.00;0.00;;;;;;;;;;5019898;28;20033;-68
2021/07/02 05:33:05;;;;;;;0.00;0.00;;;;;;;;;;5022193;28;20037;-66
2021/07/02 05:35:31;;;;;;;0.00;0.00;;;;;;;;;;5017436;28;20135;-64
2021/07/02 05:37:57;;;;;;;0.00;0.00;;;;;;;;;;4998448;28;20041;-66
2021/07/02 05:40:23;;;;;;;0.00;0.00;;;;;;;;;;5021481;28;20834;-68
2021/07/02 05:42:48;;;;;;;0.00;0.00;;;;;;;;;;5001838;28;20034;-70
2021/07/02 05:45:14;;;;;;;0.00;0.00;;;;;;;;;;5013379;28;20428;-67
2021/07/02 05:47:51;;;;;;;0.00;0.00;;;;;;;;;;5015798;28;20033;-68
2021/07/02 05:50:18;;;;;;;0.00;0.00;;;;;;;;;;5021769;28;20056;-70
2021/07/02 05:52:44;;;;;;;0.00;0.00;;;;;;;;;;5016268;28;20037;-70
2021/07/02 05:55:12;;;;;;;0.00;0.00;;;;;;;;;;5021275;28;20037;-68
2021/07/02 05:57:39;;;;;;;0.00;0.00;;;;;;;;;;5024610;28;20036;-73
2021/07/02 06:00:05;;;;;;;0.00;0.00;;;;;;;;;;5023092;28;20116;-71
2021/07/02 06:02:32;;;;;;;0.00;0.00;;;;;;;;;;5018212;28;20528;-67
2021/07/02 06:04:58;;;;;;;0.10;0.00;;;;;;;;;;5021683;28;20040;-70
2021/07/02 06:07:24;;;;;;;0.00;0.00;;;;;;;;;;5022732;28;20041;-72
2021/07/02 06:09:49;;;;;;;0.00;0.00;;;;;;;;;;5017019;28;20034;-66
2021/07/02 06:12:15;;;;;;;0.00;0.00;;;;;;;;;;5021219;28;20385;-73
2021/07/02 06:14:41;;;;;;;0.00;0.00;;;;;;;;;;5023822;28;20049;-68
2021/07/02 06:17:06;;;;;;;0.00;0.00;;;;;;;;;;5024859;28;20037;-79
2021/07/02 06:19:32;;;;;;;0.00;0.00;;;;;;;;;;5022578;28;20041;-78
2021/07/02 06:21:58;;;;;;;0.00;0.00;;;;;;;;;;5009834;28;20124;-69
2021/07/02 06:24:23;;;;;;;0.00;0.00;;;;;;;;;;5033555;28;20033;-73
2021/07/02 06:26:49;;;;;;;0.00;0.00;;;;;;;;;;5030466;28;20157;-71
2021/07/02 06:29:15;;;;;;;0.00;0.00;;;;;;;;;;5015213;28;20453;-82
2021/07/02 06:31:41;;;;;;;0.00;0.00;;;;;;;;;;5024362;28;20484;-75
2021/07/02 06:34:06;;;;;;;0.10;0.00;;;;;;;;;;5040766;28;20041;-77
2021/07/02 06:36:32;;;;;;;0.00;0.00;;;;;;;;;;5021929;28;20099;-76
2021/07/02 06:38:58;;;;;;;0.00;0.00;;;;;;;;;;5016678;28;20040;-73
2021/07/02 06:41:24;;;;;;;0.00;0.00;;;;;;;;;;5030310;28;20119;-76
2021/07/02 06:43:49;;;;;;;0.00;0.00;;;;;;;;;;5007549;28;20033;-79
2021/07/02 06:46:15;;;;;;;0.00;0.00;;;;;;;;;;4992598;28;20030;-71
2021/07/02 06:48:41;;;;;;;0.00;0.00;;;;;;;;;;5018797;28;20030;-70
2021/07/02 06:51:06;;;;;;;0.00;0.00;;;;;;;;;;5018249;28;20090;-69
2021/07/02 06:53:32;;;;;;;0.20;0.00;;;;;;;;;;5033106;28;20043;-73
2021/07/02 06:56:03;;;;;;;0.00;0.00;;;;;;;;;;5019896;28;20449;-73
2021/07/02 06:58:30;;;;;;;0.00;0.00;;;;;;;;;;5030263;28;20445;-74
2021/07/02 07:00:55;;;;;;;0.00;0.00;;;;;;;;;;5031941;28;20094;-73
2021/07/02 07:03:21;;;;;;;0.10;0.00;;;;;;;;;;5007636;28;20573;-72
2021/07/02 07:05:47;;;;;;;0.00;0.00;;;;;;;;;;5027099;28;20105;-73
2021/07/02 07:08:12;;;;;;;0.00;0.00;;;;;;;;;;5040732;28;20086;-72
2021/07/02 07:10:40;;;;;;;0.00;0.00;;;;;;;;;;5020819;28;20076;-75
2021/07/02 07:13:07;;;;;;;0.00;0.00;;;;;;;;;;5042849;28;20032;-71
2021/07/02 07:15:34;;;;;;;0.00;0.00;;;;;;;;;;5037118;28;20045;-73
2021/07/02 07:18:00;;;;;;;0.00;0.00;;;;;;;;;;5020730;28;20449;-72
2021/07/02 07:20:25;;;;;;;0.00;0.00;;;;;;;;;;5026395;28;20037;-74
2021/07/02 07:22:51;;;;;;;0.00;0.00;;;;;;;;;;5041330;28;20542;-73
2021/07/02 07:25:20;;;;;;;0.22;0.00;;;;;;;;;;5025803;28;20041;-72
2021/07/02 07:27:46;;;;;;;0.00;0.00;;;;;;;;;;5017677;28;20041;-73
2021/07/02 07:30:12;;;;;;;0.00;0.00;;;;;;;;;;5029896;28;20036;-71
2021/07/02 07:32:38;;;;;;;0.00;0.00;;;;;;;;;;5045703;28;20032;-71
2021/07/02 07:35:14;;;;;;;0.00;0.00;;;;;;;;;;5028420;28;20041;-73
2021/07/02 07:37:40;;;;;;;0.00;0.00;;;;;;;;;;5024748;28;20594;-73
2021/07/02 07:40:06;;;;;;;0.00;0.00;;;;;;;;;;5013623;28;20126;-72
2021/07/02 07:42:31;;;;;;;0.00;0.00;;;;;;;;;;5034551;28;20467;-73
2021/07/02 07:44:57;;;;;;;0.00;0.00;;;;;;;;;;5022038;28;20033;-71
2021/07/02 07:47:23;;;;;;;0.00;0.00;;;;;;;;;;5033115;28;20530;-73
2021/07/02 07:49:48;;;;;;;0.00;0.00;;;;;;;;;;5024641;28;20084;-71
2021/07/02 07:52:24;;;;;;;0.00;0.00;;;;;;;;;;5023336;28;20138;-73
2021/07/02 07:54:50;;;;;;;0.00;0.00;;;;;;;;;;5016065;28;20036;-71
2021/07/02 07:57:16;;;;;;;0.00;0.00;;;;;;;;;;5023085;28;20042;-78
2021/07/02 07:59:42;;;;;;;0.20;0.00;;;;;;;;;;5022202;28;20441;-69
2021/07/02 08:02:07;;;;;;;0.00;0.00;;;;;;;;;;5020317;28;20037;-69
2021/07/02 08:04:34;;;;;;;0.00;0.00;;;;;;;;;;5022100;28;20041;-74
2021/07/02 08:07:00;;;;;;;0.00;0.00;;;;;;;;;;5037143;28;20088;-66
2021/07/02 08:09:26;;;;;;;0.00;0.00;;;;;;;;;;5029271;28;20025;-74
2021/07/02 08:11:52;;;;;;;0.00;0.00;;;;;;;;;;5023761;28;20102;-67
2021/07/02 08:14:17;;;;;;;0.00;0.00;;;;;;;;;;5016874;28;20075;-66
2021/07/02 08:16:43;;;;;;;0.00;0.00;;;;;;;;;;5028573;28;20145;-66
2021/07/02 08:19:09;;;;;;;0.00;0.00;;;;;;;;;;5028214;28;20375;-70
2021/07/02 08:21:34;;;;;;;0.00;0.00;;;;;;;;;;5032857;28;20322;-67
2021/07/02 08:24:00;;;;;;;0.10;0.10;;;;;;;;;;5030780;28;20712;-65
2021/07/02 08:26:27;;;;;;;0.00;0.00;;;;;;;;;;5023063;28;20119;-67
2021/07/02 08:31:37;;;;;;;0.00;0.00;;;;;;;;;;5016625;28;20083;-66
2021/07/02 08:34:03;;;;;;;0.00;0.00;;;;;;;;;;5015293;28;20037;-72
2021/07/02 08:36:28;;;;;;;0.00;0.00;;;;;;;;;;5018562;28;20069;-69
2021/07/02 08:38:54;;;;;;;0.00;0.00;;;;;;;;;;5025178;28;20048;-70
2021/07/02 08:41:20;;;;;;;0.00;0.00;;;;;;;;;;5021648;28;20102;-69
2021/07/02 08:43:47;;;;;;;0.00;0.00;;;;;;;;;;5024519;28;20458;-66
2021/07/02 08:46:14;;;;;;;0.00;0.00;;;;;;;;;;5030084;28;20125;-66
2021/07/02 08:48:40;;;;;;;0.00;0.00;;;;;;;;;;5033469;28;20120;-67
2021/07/02 08:51:06;;;;;;;0.00;0.00;;;;;;;;;;5025591;28;20478;-76
2021/07/02 08:53:33;;;;;;;0.00;0.00;;;;;;;;;;5023088;28;20033;-71
2021/07/02 08:56:01;;;;;;;0.00;0.00;;;;;;;;;;5042669;28;20130;-83
2021/07/02 08:58:27;;;;;;;0.00;0.00;;;;;;;;;;5009205;28;20088;-75
2021/07/02 09:00:52;;;;;;;0.30;0.30;;;;;;;;;;5020442;28;20065;-78
2021/07/02 09:03:36;;;;;;;0.28;0.28;;;;;;;;;;5014658;28;20075;-82
2021/07/02 09:06:08;;;;;;;0.20;0.20;;;;;;;;;;5007556;28;20029;-80
2021/07/02 09:08:34;;;;;;;0.20;0.20;;;;;;;;;;5015891;28;20038;-72
2021/07/02 09:11:00;;;;;;;0.13;0.13;;;;;;;;;;5021580;28;20033;-82
2021/07/02 09:13:40;;;;;;;0.20;0.20;;;;;;;;;;5014516;28;20068;-73
2021/07/02 09:16:19;;;;;;;0.15;0.15;;;;;;;;;;5019542;28;20464;-79
2021/07/02 09:18:44;;;;;;;0.00;0.00;;;;;;;;;;5017654;28;20045;-78
2021/07/02 09:21:21;;;;;;;0.20;0.20;;;;;;;;;;5009712;28;20046;-76
2021/07/02 09:23:46;;;;;;;0.20;0.20;;;;;;;;;;5015059;28;20064;-76
2021/07/02 09:26:31;;;;;;;0.20;0.20;;;;;;;;;;5022568;28;20033;-80
2021/07/02 09:29:23;;;;;;;0.13;0.13;;;;;;;;;;4993393;28;20037;-78
2021/07/02 09:31:58;;;;;;;0.10;0.10;;;;;;;;;;5021571;28;20124;-71
2021/07/02 09:34:43;;;;;;;0.20;0.20;;;;;;;;;;4996439;28;20362;-79
2021/07/02 09:37:20;;;;;;;0.00;0.00;;;;;;;;;;5017887;28;20041;-74
2021/07/02 09:39:45;;;;;;;0.00;0.00;;;;;;;;;;5018944;28;20053;-73
2021/07/02 09:42:29;;;;;;;0.00;0.00;;;;;;;;;;5007547;28;20079;-72
2021/07/02 09:45:08;;;;;;;0.20;0.20;;;;;;;;;;5025113;28;20051;-78
2021/07/02 09:47:36;;;;;;;0.08;0.08;;;;;;;;;;5003669;28;20091;-77
2021/07/02 09:50:11;;;;;;;0.00;0.00;;;;;;;;;;5006295;28;20218;-78
2021/07/02 09:52:46;;;;;;;0.00;0.00;;;;;;;;;;5040215;28;20037;-76
2021/07/02 09:55:12;;;;;;;0.00;0.00;;;;;;;;;;5028847;28;20049;-75
2021/07/02 09:57:38;;;;;;;0.00;0.00;;;;;;;;;;4999706;28;20038;-74
2021/07/02 10:00:05;;;;;;;0.00;0.00;;;;;;;;;;5045398;28;20434;-73
2021/07/02 10:02:55;;;;;;;0.00;0.00;;;;;;;;;;5009631;28;20037;-76
2021/07/02 10:05:21;;;;;;;0.00;0.00;;;;;;;;;;5022521;28;20053;-73
2021/07/02 10:07:56;;;;;;;0.00;0.00;;;;;;;;;;5032031;28;20041;-72
2021/07/02 10:10:23;;;;;;;0.20;0.20;;;;;;;;;;5011408;28;20033;-72
2021/07/02 10:12:52;;;;;;;0.20;0.20;;;;;;;;;;5024559;28;20064;-74
2021/07/02 10:15:18;;;;;;;0.20;0.20;;;;;;;;;;5030259;28;20041;-75
2021/07/02 10:17:44;;;;;;;0.00;0.00;;;;;;;;;;5029942;28;20044;-77
2021/07/02 10:20:10;;;;;;;0.00;0.00;;;;;;;;;;5031961;28;20049;-74
2021/07/02 10:22:37;;;;;;;0.00;0.00;;;;;;;;;;5038701;28;20060;-74
2021/07/02 10:25:03;;;;;;;0.00;0.00;;;;;;;;;;5014106;28;20033;-76
2021/07/02 10:27:29;;;;;;;0.00;0.00;;;;;;;;;;5009855;28;20033;-74
2021/07/02 10:29:59;;;;;;;0.00;0.00;;;;;;;;;;5026873;28;20146;-74
2021/07/02 10:32:24;;;;;;;0.00;0.00;;;;;;;;;;5035012;28;20041;-73
2021/07/02 10:34:50;;;;;;;0.00;0.00;;;;;;;;;;5023069;28;20103;-79
2021/07/02 10:37:16;;;;;;;0.00;0.00;;;;;;;;;;5029262;28;20083;-73
2021/07/02 10:39:45;;;;;;;0.00;0.00;;;;;;;;;;5026905;28;20095;-74
2021/07/02 10:42:13;;;;;;;0.00;0.00;;;;;;;;;;5028687;28;20131;-74
2021/07/02 10:44:59;;;;;;;0.00;0.00;;;;;;;;;;5017505;28;20041;-73
2021/07/02 10:47:27;;;;;;;0.00;0.00;;;;;;;;;;5026018;28;20048;-74
2021/07/02 10:49:53;;;;;;;0.00;0.00;;;;;;;;;;5009576;28;20064;-79
2021/07/02 10:52:22;;;;;;;0.00;0.00;;;;;;;;;;4992958;28;20560;-73
2021/07/02 10:54:52;;;;;;;0.00;0.00;;;;;;;;;;5032219;28;20049;-73
2021/07/02 10:57:19;;;;;;;0.00;0.00;;;;;;;;;;4993932;28;20124;-80
2021/07/02 10:59:53;;;;;;;0.00;0.00;;;;;;;;;;5031528;28;20033;-73
2021/07/02 11:02:23;;;;;;;0.00;0.00;;;;;;;;;;5025912;28;20040;-74
2021/07/02 11:04:50;;;;;;;0.22;0.00;;;;;;;;;;5008356;28;20173;-76
2021/07/02 11:07:29;;;;;;;0.00;0.00;;;;;;;;;;5018875;28;20036;-75
2021/07/02 11:09:56;;;;;;;0.00;0.00;;;;;;;;;;5009759;28;20048;-73
2021/07/02 11:12:32;;;;;;;0.00;0.00;;;;;;;;;;5032917;28;20035;-74
2021/07/02 11:14:58;;;;;;;0.00;0.00;;;;;;;;;;5042176;28;20033;-79
2021/07/02 11:17:33;;;;;;;0.00;0.00;;;;;;;;;;4994840;28;20053;-74
2021/07/02 11:20:07;;;;;;;0.00;0.00;;;;;;;;;;4984089;28;20085;-73
2021/07/02 11:22:35;;;;;;;0.00;0.00;;;;;;;;;;5012653;28;20046;-73
2021/07/02 11:25:02;;;;;;;0.00;0.00;;;;;;;;;;5028049;28;20042;-69
2021/07/02 11:27:44;;;;;;;0.00;0.00;;;;;;;;;;5021870;28;20094;-75
2021/07/02 11:32:56;;;;;;;0.00;0.00;;;;;;;;;;5022179;28;20453;-76
2021/07/02 11:35:23;;;;;;;0.00;0.00;;;;;;;;;;5016882;28;20037;-74
2021/07/02 11:38:16;;;;;;;0.00;0.00;;;;;;;;;;5020362;28;20033;-75
2021/07/02 11:40:48;;;;;;;0.00;0.00;;;;;;;;;;5004744;28;20029;-77
2021/07/02 11:43:14;;;;;;;0.00;0.00;;;;;;;;;;5035538;28;20065;-75
2021/07/02 11:45:42;;;;;;;0.00;0.00;;;;;;;;;;5021583;28;20484;-71
2021/07/02 11:48:20;;;;;;;0.00;0.00;;;;;;;;;;5019592;28;20041;-69
2021/07/02 11:50:50;;;;;;;0.00;0.00;;;;;;;;;;5021205;28;20067;-75
2021/07/02 11:53:29;;;;;;;0.00;0.00;;;;;;;;;;5018929;28;20394;-74
2021/07/02 11:56:00;;;;;;;0.00;0.00;;;;;;;;;;5018808;28;20048;-74
2021/07/02 11:58:45;;;;;;;0.00;0.00;;;;;;;;;;5012583;28;20502;-75
2021/07/02 12:01:11;;;;;;;0.00;0.00;;;;;;;;;;5014885;28;20030;-73
2021/07/02 12:03:37;;;;;;;0.00;0.00;;;;;;;;;;5018049;28;20041;-76
2021/07/02 12:06:04;;;;;;;0.00;0.00;;;;;;;;;;4997882;28;20588;-75
2021/07/02 12:08:30;;;;;;;0.00;0.00;;;;;;;;;;5017532;28;20525;-75
2021/07/02 12:11:00;;;;;;;0.00;0.00;;;;;;;;;;4985559;28;20040;-75
2021/07/02 12:13:27;;;;;;;0.00;0.00;;;;;;;;;;5004432;28;20065;-77
2021/07/02 12:16:00;;;;;;;0.00;0.00;;;;;;;;;;4983472;28;20041;-75
2021/07/02 12:18:28;;;;;;;0.00;0.00;;;;;;;;;;5015849;28;20041;-79
2021/07/02 12:21:01;;;;;;;0.00;0.00;;;;;;;;;;5006964;28;20038;-76
2021/07/02 12:23:27;;;;;;;0.00;0.00;;;;;;;;;;5011399;28;20116;-76
2021/07/02 12:26:17;;;;;;;0.10;0.00;;;;;;;;;;5015474;28;20237;-76
2021/07/02 12:28:59;;;;;;;0.00;0.00;;;;;;;;;;4990745;28;20045;-73
2021/07/02 12:31:26;;;;;;;0.00;0.00;;;;;;;;;;4995602;28;20152;-77
2021/07/02 12:33:52;;;;;;;0.00;0.00;;;;;;;;;;5002703;28;20034;-74
2021/07/02 12:36:17;;;;;;;0.10;0.00;;;;;;;;;;5013438;28;20498;-77
2021/07/02 12:39:04;;;;;;;0.00;0.00;;;;;;;;;;5013578;28;20044;-74
2021/07/02 12:41:36;;;;;;;0.00;0.00;;;;;;;;;;4995357;28;20034;-75
2021/07/02 12:44:01;;;;;;;0.00;0.00;;;;;;;;;;5005113;28;20427;-74
2021/07/02 12:46:27;;;;;;;0.00;0.00;;;;;;;;;;5018352;28;20043;-76
2021/07/02 12:49:11;;;;;;;0.00;0.00;;;;;;;;;;5017391;28;20183;-73
2021/07/02 12:51:37;;;;;;;0.00;0.00;;;;;;;;;;5019565;28;20065;-73
2021/07/02 12:56:47;;;;;;;0.00;0.00;;;;;;;;;;5023151;28;20045;-72
2021/07/02 12:59:13;;;;;;;0.00;0.00;;;;;;;;;;5014777;28;20417;-85
2021/07/02 13:01:45;;;;;;;0.00;0.00;;;;;;;;;;5001135;28;20045;-73
2021/07/02 13:04:10;;;;;;;0.00;0.00;;;;;;;;;;5017496;28;20073;-71
2021/07/02 13:06:36;;;;;;;0.00;0.00;;;;;;;;;;5021327;28;20069;-70
2021/07/02 13:09:02;;;;;;;0.00;0.00;;;;;;;;;;4994997;28;20096;-72
2021/07/02 13:11:28;;;;;;;0.00;0.00;;;;;;;;;;5021929;28;20045;-75
2021/07/02 13:13:53;;;;;;;0.00;0.00;;;;;;;;;;5002534;28;20529;-80
2021/07/02 13:16:19;;;;;;;0.00;0.00;;;;;;;;;;5013743;28;20080;-78
2021/07/02 13:18:54;;;;;;;0.00;0.00;;;;;;;;;;5014750;28;20138;-76
2021/07/02 13:21:32;;;;;;;0.00;0.00;;;;;;;;;;5018398;28;20045;-78
2021/07/02 13:23:59;;;;;;;0.00;0.00;;;;;;;;;;5015856;28;20128;-76
2021/07/02 13:26:26;;;;;;;0.00;0.00;;;;;;;;;;5006826;28;20030;-74
2021/07/02 13:29:04;;;;;;;0.00;0.00;;;;;;;;;;5017212;28;20504;-78
2021/07/02 13:31:33;;;;;;;0.00;0.00;;;;;;;;;;5035274;28;20531;-78
2021/07/02 13:34:08;;;;;;;0.00;0.00;;;;;;;;;;5018348;28;20095;-76
2021/07/02 13:36:52;;;;;;;0.00;0.00;;;;;;;;;;5016398;28;20476;-77
2021/07/02 13:39:22;;;;;;;0.00;0.00;;;;;;;;;;4997303;28;20048;-78
2021/07/02 13:41:58;;;;;;;0.00;0.00;;;;;;;;;;5002554;28;20042;-82
2021/07/02 13:44:25;;;;;;;0.00;0.00;;;;;;;;;;5015737;28;20135;-79
2021/07/02 13:46:58;;;;;;;0.00;0.00;;;;;;;;;;5019380;28;20391;-80
2021/07/02 13:49:26;;;;;;;0.00;0.00;;;;;;;;;;5029922;28;20528;-83
2021/07/02 13:51:51;;;;;;;0.00;0.00;;;;;;;;;;5036518;28;20128;-77
2021/07/02 13:54:17;;;;;;;0.00;0.00;;;;;;;;;;5035298;28;20034;-77
2021/07/02 13:56:49;;;;;;;0.00;0.00;;;;;;;;;;5000129;28;20048;-77
2021/07/02 13:59:15;;;;;;;0.00;0.00;;;;;;;;;;5016490;28;20148;-79
2021/07/02 14:01:41;;;;;;;0.00;0.00;;;;;;;;;;5025429;28;20041;-77
2021/07/02 14:04:06;;;;;;;0.00;0.00;;;;;;;;;;5001392;28;20119;-78
2021/07/02 14:06:32;;;;;;;0.00;0.00;;;;;;;;;;5014724;28;20037;-78
2021/07/02 14:08:58;;;;;;;0.00;0.00;;;;;;;;;;5005104;28;20055;-81
2021/07/02 14:11:24;;;;;;;0.00;0.00;;;;;;;;;;5027361;28;20037;-76
2021/07/02 14:13:50;;;;;;;0.00;0.00;;;;;;;;;;5045610;28;20405;-78
2021/07/02 14:16:15;;;;;;;0.00;0.00;;;;;;;;;;5006866;28;20139;-81
2021/07/02 14:18:41;;;;;;;0.00;0.00;;;;;;;;;;5003524;28;20360;-74
2021/07/02 14:21:07;;;;;;;0.00;0.00;;;;;;;;;;5009373;28;20045;-77
2021/07/02 14:23:32;;;;;;;0.00;0.00;;;;;;;;;;5027713;28;20453;-76
2021/07/02 14:25:58;;;;;;;0.00;0.00;;;;;;;;;;5023076;28;20038;-75
2021/07/02 14:28:23;;;;;;;0.00;0.00;;;;;;;;;;4979328;28;20049;-78
2021/07/02 14:30:49;;;;;;;0.00;0.00;;;;;;;;;;5016237;28;20037;-80
2021/07/02 14:33:15;;;;;;;0.00;0.00;;;;;;;;;;5011861;28;20516;-75
2021/07/02 14:35:40;;;;;;;0.03;0.00;;;;;;;;;;5019868;28;20111;-68
2021/07/02 14:38:06;;;;;;;0.00;0.00;;;;;;;;;;5018468;28;20075;-67
2021/07/02 14:40:32;;;;;;;0.00;0.00;;;;;;;;;;5017782;28;20486;-73
2021/07/02 14:42:57;;;;;;;0.00;0.00;;;;;;;;;;4998126;28;20363;-82
2021/07/02 14:45:23;;;;;;;0.00;0.00;;;;;;;;;;5014319;28;20500;-76
2021/07/02 14:47:51;;;;;;;0.00;0.00;;;;;;;;;;5017185;28;20030;-75
2021/07/02 14:50:17;;;;;;;0.00;0.00;;;;;;;;;;5012512;28;20457;-74
2021/07/02 14:52:43;;;;;;;0.00;0.00;;;;;;;;;;5013953;28;20400;-75
2021/07/02 14:55:09;;;;;;;0.00;0.00;;;;;;;;;;5018814;28;20041;-76